createdAt,value
2022-08-29T00:01:31.929Z,1.90
2022-08-29T00:03:37.531Z,1.30
2022-08-29T00:07:50.933Z,1.33
2022-08-29T00:09:54.327Z,1.55
2022-08-29T00:11:55.942Z,1.65
2022-08-29T00:13:57.958Z,1.70
2022-08-29T00:15:59.519Z,1.20
2022-08-29T00:18:01.256Z,1.70
2022-08-29T00:20:04.479Z,1.38
2022-08-29T00:22:06.193Z,1.50
2022-08-29T00:24:08.082Z,1.40
2022-08-29T00:26:09.667Z,1.50
2022-08-29T00:28:11.587Z,1.67
2022-08-29T00:30:13.383Z,1.83
2022-08-29T00:32:15.019Z,1.55
2022-08-29T00:34:16.526Z,1.80
2022-08-29T00:36:18.216Z,1.60
2022-08-29T00:38:20.191Z,1.23
2022-08-29T00:40:26.568Z,1.90
2022-08-29T00:42:28.834Z,1.50
2022-08-29T00:44:30.431Z,1.67
2022-08-29T00:46:41.420Z,1.15
2022-08-29T00:48:44.523Z,1.77
2022-08-29T00:50:51.191Z,1.45
2022-08-29T00:52:53.175Z,1.27
2022-08-29T00:54:55.738Z,1.58
2022-08-29T00:56:59.146Z,1.48
2022-08-29T00:59:07.017Z,1.67
2022-08-29T01:01:08.679Z,1.40
2022-08-29T01:03:10.462Z,1.75
2022-08-29T01:05:15.343Z,1.70
2022-08-29T01:07:17.894Z,2.00
2022-08-29T01:09:21.069Z,1.80
2022-08-29T01:11:41.422Z,2.60
2022-08-29T01:13:44.269Z,2.75
2022-08-29T01:15:47.105Z,2.45
2022-08-29T01:17:49.170Z,2.17
2022-08-29T01:19:57.438Z,1.92
2022-08-29T01:22:03.288Z,1.83
2022-08-29T01:24:05.479Z,3.17
2022-08-29T01:26:08.019Z,2.97
2022-08-29T01:28:09.641Z,3.28
2022-08-29T01:30:12.148Z,2.70
2022-08-29T01:32:14.409Z,2.88
2022-08-29T01:34:17.181Z,2.55
2022-08-29T01:36:23.201Z,2.80
2022-08-29T01:38:30.678Z,3.00
2022-08-29T01:40:35.085Z,3.83
2022-08-29T01:42:37.326Z,2.50
2022-08-29T01:44:39.791Z,3.38
2022-08-29T01:46:41.970Z,2.10
2022-08-29T01:48:44.388Z,2.08
2022-08-29T01:50:46.624Z,2.22
2022-08-29T01:52:48.339Z,2.60
2022-08-29T01:54:50.102Z,3.13
2022-08-29T01:56:52.509Z,2.47
2022-08-29T01:58:54.831Z,2.45
2022-08-29T02:00:56.687Z,2.40
2022-08-29T02:03:01.070Z,3.33
2022-08-29T02:05:02.723Z,2.95
2022-08-29T02:07:05.172Z,2.67
2022-08-29T02:09:11.400Z,3.40
2022-08-29T02:11:15.926Z,2.90
2022-08-29T02:13:17.792Z,3.60
2022-08-29T02:15:20.230Z,3.00
2022-08-29T02:17:22.195Z,3.63
2022-08-29T02:19:24.084Z,3.13
2022-08-29T02:21:27.330Z,2.25
2022-08-29T02:23:31.233Z,2.78
2022-08-29T02:27:44.123Z,2.97
2022-08-29T02:29:45.650Z,4.15
2022-08-29T02:31:47.324Z,2.67
2022-08-29T02:33:49.662Z,3.15
2022-08-29T02:35:51.446Z,3.05
2022-08-29T02:37:53.252Z,3.28
2022-08-29T02:39:54.958Z,2.78
2022-08-29T02:41:56.827Z,2.95
2022-08-29T02:43:58.761Z,2.92
2022-08-29T02:46:00.380Z,2.85
2022-08-29T02:48:03.868Z,3.10
2022-08-29T02:50:16.216Z,2.92
2022-08-29T02:52:38.450Z,2.55
2022-08-29T02:54:55.999Z,3.40
2022-08-29T02:57:12.114Z,1.92
2022-08-29T02:59:31.733Z,2.30
2022-08-29T03:01:55.050Z,1.58
2022-08-29T03:04:18.874Z,1.75
2022-08-29T03:06:33.616Z,2.40
2022-08-29T03:08:56.223Z,2.30
2022-08-29T03:11:18.672Z,2.25
2022-08-29T03:13:28.066Z,3.25
2022-08-29T03:15:30.102Z,2.53
2022-08-29T03:17:31.707Z,1.50
2022-08-29T03:19:37.379Z,1.92
2022-08-29T03:21:39.315Z,1.75
2022-08-29T03:23:40.884Z,1.60
2022-08-29T03:25:42.919Z,1.67
2022-08-29T03:27:44.830Z,1.58
2022-08-29T03:29:46.634Z,1.63
2022-08-29T03:31:48.498Z,1.40
2022-08-29T03:33:50.076Z,1.63
2022-08-29T03:35:53.240Z,1.60
2022-08-29T03:37:55.913Z,1.38
2022-08-29T03:39:57.948Z,1.25
2022-08-29T03:41:59.638Z,1.70
2022-08-29T03:44:01.308Z,1.60
2022-08-29T03:46:02.992Z,1.73
2022-08-29T03:48:04.988Z,1.67
2022-08-29T03:50:06.885Z,1.77
2022-08-29T03:52:11.535Z,1.50
2022-08-29T03:54:13.186Z,1.73
2022-08-29T03:56:18.408Z,1.67
2022-08-29T03:58:20.969Z,2.38
2022-08-29T04:00:23.014Z,2.40
2022-08-29T04:02:25.134Z,2.30
2022-08-29T04:04:45.673Z,2.28
2022-08-29T04:06:47.394Z,3.30
2022-08-29T04:08:49.777Z,3.50
2022-08-29T04:10:51.754Z,2.03
2022-08-29T04:12:54.950Z,2.35
2022-08-29T04:14:56.806Z,2.60
2022-08-29T04:16:58.554Z,2.10
2022-08-29T04:19:00.195Z,1.92
2022-08-29T04:21:02.822Z,1.63
2022-08-29T04:23:06.104Z,2.08
2022-08-29T04:25:10.134Z,1.75
2022-08-29T04:27:11.727Z,1.40
2022-08-29T04:29:14.027Z,1.10
2022-08-29T04:31:21.681Z,1.75
2022-08-29T04:33:24.426Z,1.65
2022-08-29T04:35:26.448Z,1.83
2022-08-29T04:37:28.389Z,1.88
2022-08-29T04:39:30.329Z,1.45
2022-08-29T04:41:33.298Z,1.95
2022-08-29T04:43:34.924Z,1.52
2022-08-29T04:45:37.219Z,1.50
2022-08-29T04:47:39.762Z,1.67
2022-08-29T04:49:42.565Z,1.55
2022-08-29T04:51:44.238Z,1.73
2022-08-29T04:53:46.517Z,1.40
2022-08-29T04:55:55.962Z,1.70
2022-08-29T04:57:58.226Z,2.15
2022-08-29T05:00:01.349Z,1.67
2022-08-29T05:02:02.998Z,1.92
2022-08-29T05:04:05.534Z,3.10
2022-08-29T05:06:08.771Z,1.67
2022-08-29T05:08:10.776Z,1.48
2022-08-29T05:10:20.325Z,1.45
2022-08-29T05:12:22.911Z,1.42
2022-08-29T05:14:24.442Z,1.67
2022-08-29T05:16:26.348Z,2.08
2022-08-29T05:18:28.023Z,2.22
2022-08-29T05:20:31.697Z,1.90
2022-08-29T05:22:33.586Z,1.85
2022-08-29T05:24:37.646Z,2.03
2022-08-29T05:28:40.899Z,1.75
2022-08-29T05:30:42.637Z,2.53
2022-08-29T05:32:44.403Z,1.88
2022-08-29T05:34:46.667Z,3.15
2022-08-29T05:36:48.276Z,1.85
2022-08-29T05:38:50.030Z,2.13
2022-08-29T05:40:52.257Z,2.22
2022-08-29T05:42:54.153Z,2.40
2022-08-29T05:44:56.541Z,2.00
2022-08-29T05:46:59.580Z,1.90
2022-08-29T05:49:01.195Z,2.28
2022-08-29T05:51:02.735Z,1.70
2022-08-29T05:53:04.531Z,2.03
2022-08-29T05:55:08.403Z,1.88
2022-08-29T05:59:21.295Z,2.35
2022-08-29T06:01:27.485Z,2.30
2022-08-29T06:03:32.869Z,2.15
2022-08-29T06:05:37.796Z,2.63
2022-08-29T06:07:42.237Z,2.35
2022-08-29T06:09:46.587Z,2.33
2022-08-29T06:11:51.268Z,2.25
2022-08-29T06:13:55.719Z,2.13
2022-08-29T06:15:59.338Z,2.25
2022-08-29T06:18:03.585Z,2.90
2022-08-29T06:20:09.960Z,3.28
2022-08-29T06:22:11.742Z,2.55
2022-08-29T06:24:13.630Z,3.13
2022-08-29T06:26:16.066Z,2.40
2022-08-29T06:28:23.771Z,2.70
2022-08-29T06:30:26.222Z,2.53
2022-08-29T06:32:28.351Z,2.88
2022-08-29T06:34:31.134Z,2.63
2022-08-29T06:36:33.881Z,2.95
2022-08-29T06:38:38.742Z,2.75
2022-08-29T06:40:40.405Z,2.53
2022-08-29T06:42:42.477Z,2.83
2022-08-29T06:44:44.672Z,3.67
2022-08-29T06:46:48.278Z,2.70
2022-08-29T06:48:50.602Z,2.80
2022-08-29T06:50:53.058Z,2.70
2022-08-29T06:52:55.725Z,2.13
2022-08-29T06:54:57.571Z,1.58
2022-08-29T06:57:00.014Z,1.23
2022-08-29T06:59:02.233Z,1.30
2022-08-29T07:01:12.405Z,1.90
2022-08-29T07:03:14.378Z,1.42
2022-08-29T07:05:16.255Z,1.77
2022-08-29T07:07:17.933Z,0.98
2022-08-29T07:09:19.651Z,1.35
2022-08-29T07:11:21.291Z,1.13
2022-08-29T07:13:23.294Z,1.23
2022-08-29T07:15:25.116Z,1.00
2022-08-29T07:17:26.873Z,0.75
2022-08-29T07:19:28.570Z,0.73
2022-08-29T07:21:30.497Z,1.00
2022-08-29T07:23:32.058Z,1.10
2022-08-29T07:25:33.928Z,1.00
2022-08-29T07:27:35.903Z,1.15
2022-08-29T07:29:38.532Z,1.08
2022-08-29T07:31:40.583Z,1.08
2022-08-29T07:33:42.462Z,1.00
2022-08-29T07:35:44.075Z,1.23
2022-08-29T07:37:50.673Z,0.75
2022-08-29T07:39:52.639Z,1.05
2022-08-29T07:41:54.660Z,0.82
2022-08-29T07:43:57.259Z,0.82
2022-08-29T07:45:59.417Z,1.00
2022-08-29T07:48:01.019Z,0.93
2022-08-29T07:50:03.864Z,0.80
2022-08-29T07:52:05.448Z,0.82
2022-08-29T07:54:08.006Z,1.10
2022-08-29T07:56:12.786Z,0.75
2022-08-29T07:58:14.707Z,0.77
2022-08-29T08:00:16.732Z,0.70
2022-08-29T08:02:18.361Z,1.10
2022-08-29T08:04:20.048Z,0.90
2022-08-29T08:06:23.153Z,1.08
2022-08-29T08:08:25.003Z,0.50
2022-08-29T08:10:27.643Z,0.90
2022-08-29T08:12:29.470Z,0.93
2022-08-29T08:14:35.246Z,1.13
2022-08-29T08:16:37.658Z,0.60
2022-08-29T08:18:40.450Z,0.80
2022-08-29T08:20:48.363Z,1.02
2022-08-29T08:22:49.927Z,0.57
2022-08-29T08:24:51.586Z,0.80
2022-08-29T08:26:53.213Z,0.88
2022-08-29T08:28:55.163Z,0.98
2022-08-29T08:31:01.179Z,0.52
2022-08-29T08:33:05.288Z,0.77
2022-08-29T08:35:07.175Z,1.10
2022-08-29T08:37:10.285Z,0.75
2022-08-29T08:39:12.737Z,0.90
2022-08-29T08:41:17.852Z,0.82
2022-08-29T08:43:26.552Z,0.80
2022-08-29T08:45:43.342Z,0.57
2022-08-29T08:47:58.463Z,0.90
2022-08-29T08:50:11.247Z,1.05
2022-08-29T08:52:16.663Z,0.55
2022-08-29T08:54:21.612Z,1.00
2022-08-29T08:56:28.900Z,0.55
2022-08-29T08:58:30.519Z,0.73
2022-08-29T09:00:40.686Z,0.85
2022-08-29T09:02:56.506Z,0.80
2022-08-29T09:05:26.664Z,0.93
2022-08-29T09:07:43.008Z,1.10
2022-08-29T09:10:11.076Z,0.65
2022-08-29T09:12:33.962Z,1.23
2022-08-29T09:15:00.306Z,0.77
2022-08-29T09:17:06.769Z,1.00
2022-08-29T09:19:17.410Z,0.60
2022-08-29T09:21:40.434Z,0.70
2022-08-29T09:23:49.054Z,0.38
2022-08-29T09:25:56.097Z,0.80
2022-08-29T09:27:58.511Z,1.10
2022-08-29T09:30:11.954Z,0.60
2022-08-29T09:32:17.757Z,0.70
2022-08-29T09:34:50.893Z,1.05
2022-08-29T09:36:56.596Z,0.65
2022-08-29T09:39:10.208Z,0.80
2022-08-29T09:41:11.766Z,0.80
2022-08-29T09:43:18.168Z,0.68
2022-08-29T09:45:21.986Z,0.70
2022-08-29T09:47:28.346Z,0.50
2022-08-29T09:49:29.930Z,0.70
2022-08-29T09:51:42.746Z,0.75
2022-08-29T09:53:44.711Z,0.80
2022-08-29T09:55:46.635Z,0.82
2022-08-29T09:57:53.439Z,0.63
2022-08-29T10:00:12.435Z,0.70
2022-08-29T10:02:23.238Z,1.15
2022-08-29T10:04:39.476Z,0.52
2022-08-29T10:06:45.069Z,0.70
2022-08-29T10:08:58.774Z,0.63
2022-08-29T10:11:03.036Z,0.82
2022-08-29T10:13:29.147Z,0.77
2022-08-29T10:15:49.962Z,1.00
2022-08-29T10:18:23.934Z,0.50
2022-08-29T10:20:29.069Z,0.80
2022-08-29T10:22:30.603Z,0.90
2022-08-29T10:24:32.155Z,0.80
2022-08-29T10:26:54.253Z,0.57
2022-08-29T10:29:15.989Z,0.90
2022-08-29T10:31:27.252Z,0.60
2022-08-29T10:33:45.352Z,0.60
2022-08-29T10:35:54.667Z,0.90
2022-08-29T10:38:15.444Z,1.30
2022-08-29T10:40:19.942Z,0.80
2022-08-29T10:42:25.058Z,0.80
2022-08-29T10:44:45.219Z,1.20
2022-08-29T10:46:50.102Z,0.60
2022-08-29T10:49:00.491Z,1.15
2022-08-29T10:51:11.108Z,1.05
2022-08-29T10:53:18.883Z,0.90
2022-08-29T10:55:24.385Z,0.85
2022-08-29T10:57:34.971Z,0.77
2022-08-29T10:59:50.562Z,0.93
2022-08-29T11:01:55.753Z,0.82
2022-08-29T11:04:06.414Z,0.80
2022-08-29T11:06:23.994Z,0.82
2022-08-29T11:08:29.226Z,0.90
2022-08-29T11:10:39.750Z,0.80
2022-08-29T11:12:47.088Z,0.93
2022-08-29T11:14:49.060Z,1.13
2022-08-29T11:16:51.635Z,0.77
2022-08-29T11:18:57.371Z,0.88
2022-08-29T11:21:07.257Z,0.93
2022-08-29T11:23:29.958Z,0.82
2022-08-29T11:25:33.341Z,0.75
2022-08-29T11:29:45.401Z,0.80
2022-08-29T11:31:47.293Z,0.90
2022-08-29T11:33:48.995Z,0.95
2022-08-29T11:36:09.615Z,0.60
2022-08-29T11:38:13.762Z,0.98
2022-08-29T11:40:47.319Z,0.75
2022-08-29T11:42:50.192Z,1.08
2022-08-29T11:44:54.143Z,0.70
2022-08-29T11:46:57.045Z,0.80
2022-08-29T11:49:18.770Z,0.90
2022-08-29T11:51:26.267Z,1.00
2022-08-29T11:53:33.959Z,1.00
2022-08-29T11:55:39.407Z,0.98
2022-08-29T11:57:48.273Z,1.13
2022-08-29T11:59:57.064Z,0.75
2022-08-29T12:02:00.678Z,0.98
2022-08-29T12:04:05.044Z,1.17
2022-08-29T12:06:22.812Z,1.02
2022-08-29T12:08:44.852Z,0.80
2022-08-29T12:10:58.255Z,1.10
2022-08-29T12:13:08.155Z,1.23
2022-08-29T12:15:33.331Z,1.17
2022-08-29T12:18:03.616Z,1.35
2022-08-29T12:20:09.952Z,1.13
2022-08-29T12:22:34.052Z,1.05
2022-08-29T12:24:57.047Z,1.15
2022-08-29T12:27:07.295Z,0.93
2022-08-29T12:29:41.310Z,0.95
2022-08-29T12:32:22.442Z,1.00
2022-08-29T12:34:40.915Z,0.93
2022-08-29T12:37:03.365Z,1.75
2022-08-29T12:39:12.217Z,0.98
2022-08-29T12:41:24.316Z,0.75
2022-08-29T12:43:33.292Z,0.90
2022-08-29T12:45:36.242Z,1.00
2022-08-29T12:47:48.221Z,0.77
2022-08-29T12:49:51.753Z,0.82
2022-08-29T12:53:54.629Z,1.45
2022-08-29T12:55:57.912Z,1.13
2022-08-29T12:58:00.024Z,0.80
2022-08-29T13:00:05.211Z,1.48
2022-08-29T13:02:07.578Z,0.85
2022-08-29T13:04:12.102Z,1.00
2022-08-29T13:06:14.016Z,1.00
2022-08-29T13:08:27.795Z,1.23
2022-08-29T13:10:29.672Z,0.80
2022-08-29T13:12:32.701Z,1.10
2022-08-29T13:14:36.075Z,0.85
2022-08-29T13:16:39.156Z,1.00
2022-08-29T13:19:00.213Z,0.85
2022-08-29T13:21:11.136Z,1.15
2022-08-29T13:23:12.911Z,0.80
2022-08-29T13:25:16.538Z,1.40
2022-08-29T13:29:22.115Z,1.05
2022-08-29T13:31:26.281Z,0.80
2022-08-29T13:33:34.847Z,0.80
2022-08-29T13:35:37.394Z,1.20
2022-08-29T13:37:40.181Z,1.60
2022-08-29T13:39:45.882Z,0.87
2022-08-29T13:42:02.318Z,0.90
2022-08-29T13:44:03.850Z,0.98
2022-08-29T13:46:24.612Z,1.02
2022-08-29T13:48:26.794Z,1.33
2022-08-29T13:50:28.543Z,1.23
2022-08-29T13:52:31.966Z,1.13
2022-08-29T13:54:34.704Z,1.33
2022-08-29T13:58:38.790Z,1.00
2022-08-29T14:00:40.847Z,1.00
2022-08-29T14:02:45.127Z,1.05
2022-08-29T14:04:50.174Z,2.17
2022-08-29T14:06:52.194Z,2.42
2022-08-29T14:08:54.326Z,0.90
2022-08-29T14:10:55.977Z,1.40
2022-08-29T14:12:57.522Z,1.20
2022-08-29T14:14:59.499Z,1.20
2022-08-29T14:17:01.034Z,1.63
2022-08-29T14:19:02.769Z,1.27
2022-08-29T14:21:04.406Z,1.10
2022-08-29T14:23:06.042Z,1.05
2022-08-29T14:25:08.078Z,0.90
2022-08-29T14:27:09.799Z,1.40
2022-08-29T14:29:11.430Z,1.55
2022-08-29T14:31:13.260Z,1.17
2022-08-29T14:33:15.218Z,1.00
2022-08-29T14:35:25.994Z,1.23
2022-08-29T14:37:33.643Z,1.30
2022-08-29T14:39:35.368Z,1.77
2022-08-29T14:41:37.176Z,1.08
2022-08-29T14:43:39.999Z,1.10
2022-08-29T14:45:41.639Z,1.38
2022-08-29T14:47:45.393Z,0.95
2022-08-29T14:49:47.038Z,1.02
2022-08-29T14:51:49.055Z,0.95
2022-08-29T14:53:54.195Z,1.20
2022-08-29T14:55:56.735Z,1.02
2022-08-29T14:57:58.220Z,1.20
2022-08-29T14:59:59.725Z,1.10
2022-08-29T15:02:01.338Z,1.05
2022-08-29T15:04:03.495Z,1.20
2022-08-29T15:06:05.834Z,1.08
2022-08-29T15:08:07.768Z,0.80
2022-08-29T15:10:11.302Z,1.30
2022-08-29T15:12:15.782Z,1.10
2022-08-29T15:14:24.636Z,1.48
2022-08-29T15:16:30.395Z,1.10
2022-08-29T15:19:22.426Z,1.00
2022-08-29T15:21:01.838Z,1.25
2022-08-29T15:23:07.538Z,1.27
2022-08-29T15:25:11.508Z,1.20
2022-08-29T15:27:17.543Z,1.58
2022-08-29T15:29:21.140Z,1.10
2022-08-29T15:31:26.316Z,1.23
2022-08-29T15:33:32.643Z,0.90
2022-08-29T15:35:41.684Z,1.00
2022-08-29T15:37:48.617Z,1.15
2022-08-29T15:39:54.585Z,1.20
2022-08-29T15:41:59.027Z,1.10
2022-08-29T15:44:01.487Z,1.45
2022-08-29T15:46:03.281Z,1.20
2022-08-29T15:48:06.199Z,1.52
2022-08-29T15:50:13.286Z,1.02
2022-08-29T15:52:14.940Z,1.48
2022-08-29T15:54:16.986Z,1.17
2022-08-29T15:56:18.563Z,1.13
2022-08-29T15:58:20.136Z,1.08
2022-08-29T16:00:30.411Z,1.33
2022-08-29T16:02:33.006Z,1.48
2022-08-29T16:04:34.542Z,1.27
2022-08-29T16:06:36.568Z,1.25
2022-08-29T16:08:38.190Z,1.20
2022-08-29T16:10:47.802Z,1.58
2022-08-29T16:12:49.373Z,1.27
2022-08-29T16:15:00.117Z,1.20
2022-08-29T16:17:02.710Z,0.93
2022-08-29T16:19:05.696Z,1.35
2022-08-29T16:21:08.045Z,1.50
2022-08-29T16:23:09.620Z,1.42
2022-08-29T16:25:11.922Z,1.42
2022-08-29T16:27:13.582Z,1.17
2022-08-29T16:29:15.146Z,1.48
2022-08-29T16:31:25.922Z,1.50
2022-08-29T16:33:28.113Z,1.40
2022-08-29T16:35:30.076Z,1.45
2022-08-29T16:37:32.815Z,1.38
2022-08-29T16:39:34.538Z,1.40
2022-08-29T16:41:36.223Z,1.85
2022-08-29T16:43:39.115Z,1.48
2022-08-29T16:45:40.811Z,1.60
2022-08-29T16:47:42.506Z,1.65
2022-08-29T16:49:47.318Z,1.48
2022-08-29T16:51:48.933Z,1.50
2022-08-29T16:53:50.981Z,1.95
2022-08-29T16:55:52.603Z,1.98
2022-08-29T16:58:14.539Z,1.85
2022-08-29T17:00:16.307Z,1.63
2022-08-29T17:02:18.033Z,1.40
2022-08-29T17:04:24.123Z,1.27
2022-08-29T17:06:26.034Z,1.63
2022-08-29T17:08:27.824Z,1.88
2022-08-29T17:10:29.304Z,1.95
2022-08-29T17:12:31.205Z,1.52
2022-08-29T17:14:32.958Z,2.00
2022-08-29T17:16:35.540Z,1.45
2022-08-29T17:18:37.734Z,1.90
2022-08-29T17:20:41.426Z,1.52
2022-08-29T17:22:48.213Z,1.70
2022-08-29T17:24:50.275Z,1.65
2022-08-29T17:26:52.534Z,1.42
2022-08-29T17:28:54.126Z,1.83
2022-08-29T17:30:57.489Z,2.38
2022-08-29T17:33:00.002Z,2.13
2022-08-29T17:35:01.922Z,1.95
2022-08-29T17:37:03.807Z,1.80
2022-08-29T17:39:06.212Z,1.60
2022-08-29T17:41:15.017Z,3.40
2022-08-29T17:43:19.221Z,1.77
2022-08-29T17:45:20.995Z,1.83
2022-08-29T17:47:22.588Z,2.03
2022-08-29T17:49:25.798Z,1.88
2022-08-29T17:51:29.500Z,2.10
2022-08-29T17:53:32.500Z,1.60
2022-08-29T17:55:34.101Z,1.95
2022-08-29T17:57:36.108Z,1.95
2022-08-29T17:59:38.229Z,1.50
2022-08-29T18:01:40.176Z,1.63
2022-08-29T18:03:41.926Z,1.65
2022-08-29T18:05:43.703Z,1.65
2022-08-29T18:07:45.400Z,1.65
2022-08-29T18:09:49.246Z,2.20
2022-08-29T18:11:51.811Z,1.92
2022-08-29T18:13:56.578Z,2.05
2022-08-29T18:15:58.641Z,2.10
2022-08-29T18:18:02.083Z,1.98
2022-08-29T18:20:10.430Z,2.17
2022-08-29T18:22:17.273Z,1.98
2022-08-29T18:24:27.815Z,2.00
2022-08-29T18:26:30.161Z,2.05
2022-08-29T18:28:40.622Z,1.83
2022-08-29T18:30:54.283Z,2.38
2022-08-29T18:33:04.629Z,1.70
2022-08-29T18:35:15.155Z,1.50
2022-08-29T18:37:20.125Z,1.58
2022-08-29T18:39:30.896Z,3.08
2022-08-29T18:41:44.230Z,2.20
2022-08-29T18:43:48.576Z,1.40
2022-08-29T18:45:50.721Z,1.67
2022-08-29T18:47:52.503Z,1.67
2022-08-29T18:50:13.123Z,1.58
2022-08-29T18:52:15.122Z,1.38
2022-08-29T18:54:19.233Z,1.27
2022-08-29T18:56:21.383Z,1.70
2022-08-29T18:58:24.206Z,1.90
2022-08-29T19:00:26.408Z,1.65
2022-08-29T19:02:28.556Z,1.63
2022-08-29T19:04:31.031Z,1.55
2022-08-29T19:06:32.703Z,2.00
2022-08-29T19:08:34.317Z,1.70
2022-08-29T19:10:36.330Z,1.63
2022-08-29T19:12:38.179Z,1.90
2022-08-29T19:14:46.023Z,2.22
2022-08-29T19:16:50.984Z,1.88
2022-08-29T19:18:53.561Z,2.00
2022-08-29T19:23:35.532Z,2.30
2022-08-29T19:25:37.743Z,1.80
2022-08-29T19:27:43.602Z,1.80
2022-08-29T19:29:45.529Z,1.80
2022-08-29T19:31:50.772Z,1.73
2022-08-29T19:33:53.652Z,1.45
2022-08-29T19:35:56.259Z,1.98
2022-08-29T19:37:57.892Z,1.52
2022-08-29T19:39:59.467Z,1.35
2022-08-29T19:42:03.133Z,1.90
2022-08-29T19:44:04.577Z,1.50
2022-08-29T19:46:14.374Z,1.70
2022-08-29T19:48:18.031Z,1.77
2022-08-29T19:50:21.131Z,1.63
2022-08-29T19:52:22.579Z,2.05
2022-08-29T19:54:25.667Z,2.30
2022-08-29T19:56:29.106Z,1.65
2022-08-29T19:58:31.317Z,1.60
2022-08-29T20:00:33.771Z,1.80
2022-08-29T20:02:35.912Z,1.85
2022-08-29T20:04:37.934Z,1.23
2022-08-29T20:06:40.125Z,1.60
2022-08-29T20:08:43.550Z,1.75
2022-08-29T20:10:50.088Z,1.73
2022-08-29T20:12:53.068Z,2.88
2022-08-29T20:14:54.839Z,1.75
2022-08-29T20:16:57.335Z,2.45
2022-08-29T20:18:58.973Z,1.75
2022-08-29T20:21:00.828Z,1.88
2022-08-29T20:23:06.782Z,2.13
2022-08-29T20:25:09.224Z,2.03
2022-08-29T20:27:10.770Z,1.88
2022-08-29T20:29:12.727Z,2.17
2022-08-29T20:31:14.329Z,1.70
2022-08-29T20:33:16.379Z,1.42
2022-08-29T20:35:38.247Z,1.67
2022-08-29T20:37:40.127Z,1.55
2022-08-29T20:39:43.203Z,1.17
2022-08-29T20:41:57.959Z,1.50
2022-08-29T20:44:06.791Z,1.73
2022-08-29T20:46:09.115Z,1.73
2022-08-29T20:48:11.386Z,2.08
2022-08-29T20:50:13.171Z,1.35
2022-08-29T20:52:17.621Z,1.60
2022-08-29T20:54:21.129Z,1.52
2022-08-29T20:56:22.645Z,1.38
2022-08-29T20:58:24.531Z,1.45
2022-08-29T21:00:27.056Z,1.73
2022-08-29T21:02:47.435Z,1.35
2022-08-29T21:05:07.605Z,2.33
2022-08-29T21:07:10.787Z,1.42
2022-08-29T21:09:12.355Z,2.33
2022-08-29T21:11:15.668Z,2.08
2022-08-29T21:13:18.068Z,1.63
2022-08-29T21:15:19.766Z,1.60
2022-08-29T21:17:21.522Z,1.42
2022-08-29T21:19:23.569Z,2.03
2022-08-29T21:21:25.325Z,1.33
2022-08-29T21:23:30.011Z,2.50
2022-08-29T21:25:34.009Z,1.45
2022-08-29T21:27:36.906Z,1.67
2022-08-29T21:29:41.074Z,1.70
2022-08-29T21:31:45.316Z,1.67
2022-08-29T21:33:49.224Z,1.73
2022-08-29T21:35:52.860Z,1.88
2022-08-29T21:37:56.430Z,2.13
2022-08-29T21:39:59.631Z,1.70
2022-08-29T21:42:03.230Z,1.80
2022-08-29T21:44:07.499Z,1.85
2022-08-29T21:48:13.910Z,1.75
2022-08-29T21:50:15.766Z,1.85
2022-08-29T21:52:18.723Z,2.30
2022-08-29T21:54:20.298Z,1.80
2022-08-29T21:56:22.581Z,1.98
2022-08-29T21:58:24.410Z,2.13
2022-08-29T22:00:27.349Z,1.83
2022-08-29T22:02:29.348Z,1.73
2022-08-29T22:04:32.810Z,2.03
2022-08-29T22:06:35.304Z,1.90
2022-08-29T22:08:36.999Z,2.05
2022-08-29T22:10:38.672Z,2.17
2022-08-29T22:12:40.527Z,2.88
2022-08-29T22:15:00.787Z,2.50
2022-08-29T22:17:02.459Z,2.22
2022-08-29T22:19:05.995Z,2.10
2022-08-29T22:21:08.758Z,2.25
2022-08-29T22:23:14.007Z,2.33
2022-08-29T22:25:19.247Z,2.35
2022-08-29T22:27:21.089Z,2.15
2022-08-29T22:29:22.789Z,2.40
2022-08-29T22:31:24.753Z,2.22
2022-08-29T22:33:26.454Z,2.05
2022-08-29T22:35:28.717Z,1.83
2022-08-29T22:37:30.422Z,2.25
2022-08-29T22:39:31.942Z,2.00
2022-08-29T22:41:34.154Z,2.50
2022-08-29T22:43:36.602Z,2.15
2022-08-29T22:45:39.772Z,3.10
2022-08-29T22:47:42.818Z,2.30
2022-08-29T22:49:44.480Z,2.03
2022-08-29T22:51:46.690Z,1.83
2022-08-29T22:54:08.330Z,2.33
2022-08-29T22:56:10.279Z,1.80
2022-08-29T22:58:12.590Z,2.10
2022-08-29T23:00:16.654Z,1.83
2022-08-29T23:04:20.125Z,2.00
2022-08-29T23:06:22.150Z,2.10
2022-08-29T23:08:23.908Z,1.80
2022-08-29T23:10:25.543Z,2.20
2022-08-29T23:12:27.122Z,2.03
2022-08-29T23:14:28.680Z,1.85
2022-08-29T23:16:30.367Z,2.50
2022-08-29T23:18:31.814Z,1.98
2022-08-29T23:20:33.371Z,2.17
2022-08-29T23:22:35.447Z,1.88
2022-08-29T23:24:39.129Z,2.30
2022-08-29T23:26:42.921Z,2.10
2022-08-29T23:28:44.457Z,2.40
2022-08-29T23:30:47.043Z,2.30
2022-08-29T23:34:49.983Z,2.58
2022-08-29T23:36:51.483Z,2.25
2022-08-29T23:38:53.026Z,2.28
2022-08-29T23:40:55.419Z,2.20
2022-08-29T23:42:56.921Z,2.63
2022-08-29T23:44:58.583Z,2.58
2022-08-29T23:47:00.024Z,2.20
2022-08-29T23:49:01.783Z,2.30
2022-08-29T23:51:10.250Z,2.45
2022-08-29T23:53:11.819Z,1.88
2022-08-29T23:55:15.390Z,2.38
2022-08-29T23:57:16.947Z,2.35
2022-08-29T23:59:37.272Z,2.63
